map of KSY home
Great Circle Mapper logo
KSY - Airport
Location
City:  Kars, Turkey
ICAO / IATA:LTCF / KSY

Details
Type:Airport (Aerodrome, Airfield)
Latitude:4033'44"N (40.562222)
Longitude:4306'54"E (43.115002)
Datum:WGS 1984
Elevation:5889 ft (1795 m)
Variation:6.12E (WMM2015 magnetic declination)
0.08 annual change
Runways:1
Longest:11483 × 148 ft (3500 × 45 m), paved

Time
Time Zone:UTC+2 (DST+3)
Local Time:

Weather
METAR:LTCF 041750Z 26005G21KT 180V340 9999 SCT035 21/02 Q1023

Related Locations
Nearby:
Farthest:GMR: 11220 mi / 18057 km
Mangareva [Totegegie], Gambier Islands, PF

Find:

   beyond  
but within

Other Information
Maps:
NOTAMs:
Links:
Sources:

  
flag of Turkey   

Sectional Chart

Flight Planning
at skyvector.com

Satellite Image

Google Maps Satellite view

 

Copyright © 2004-2015 Karl L. Swartz. All rights reserved.
The Great Circle Mapper name and logo are trademarks of the Great Circle Mapper.
All other trademarks mentioned herein belong to their respective owners.
Please see credits for attibutions and further copyright information.

  Follow gcmap on Facebook Follow gcmap on Twitter Follow gcmap on Google+

hCard Microformat

Geo Microformat